Time;durP1;ratioP1;P1;durP2;ratioP2;P2;SDS_P1;SDS_P2;PMS_P1;PMS_P2;Temp;Humidity;BMP_temperature;BMP_pressure;BME280_temperature;BME280_humidity;BME280_pressure;Samples;Min_cycle;Max_cycle;Signal;HPM_P1;HPM_P2
2023/08/16 00:01:16;;;;;;;14.52;4.03;;;21.40;99.90;;;;;;5051062;28;20071;-77
2023/08/16 00:03:43;;;;;;;5.50;3.60;;;21.40;99.90;;;;;;5049681;28;20032;-78
2023/08/16 00:06:13;;;;;;;9.73;3.88;;;21.40;99.90;;;;;;5051175;28;20021;-78
2023/08/16 00:08:40;;;;;;;11.93;4.15;;;21.30;99.90;;;;;;5050076;28;20033;-78
2023/08/16 00:11:06;;;;;;;6.32;3.83;;;21.30;99.90;;;;;;5049985;28;20103;-78
2023/08/16 00:13:33;;;;;;;6.35;3.80;;;21.20;99.90;;;;;;5050924;28;20420;-77
2023/08/16 00:15:59;;;;;;;6.55;3.60;;;21.30;99.90;;;;;;5049462;28;20064;-79
2023/08/16 00:18:25;;;;;;;10.60;5.18;;;21.20;99.90;;;;;;5050935;28;20056;-79
2023/08/16 00:20:51;;;;;;;9.30;3.70;;;21.20;99.90;;;;;;5050683;28;20122;-79
2023/08/16 00:23:16;;;;;;;5.53;3.45;;;21.10;99.90;;;;;;5050901;28;20052;-79
2023/08/16 00:25:42;;;;;;;7.88;3.88;;;21.10;99.90;;;;;;5050768;28;20028;-78
2023/08/16 00:28:08;;;;;;;9.77;3.90;;;21.10;99.90;;;;;;5050757;28;20481;-79
2023/08/16 00:30:33;;;;;;;7.20;3.65;;;21.10;99.90;;;;;;5049259;28;20594;-80
2023/08/16 00:32:59;;;;;;;8.30;4.25;;;21.10;99.90;;;;;;5050489;28;20060;-80
2023/08/16 00:35:24;;;;;;;7.13;3.85;;;21.10;99.90;;;;;;5050550;28;20075;-79
2023/08/16 00:37:50;;;;;;;9.48;4.38;;;21.00;99.90;;;;;;5049044;28;20477;-80
2023/08/16 00:40:16;;;;;;;8.35;4.13;;;21.00;99.90;;;;;;5048554;28;20115;-79
2023/08/16 00:42:42;;;;;;;4.75;3.83;;;21.00;99.90;;;;;;5048667;28;20372;-79
2023/08/16 00:45:08;;;;;;;7.13;3.60;;;21.10;99.90;;;;;;5049027;28;20033;-79
2023/08/16 00:47:34;;;;;;;14.52;3.47;;;21.00;99.90;;;;;;5050403;28;20104;-80
2023/08/16 00:50:00;;;;;;;7.57;4.13;;;21.00;99.90;;;;;;5050258;28;20031;-81
2023/08/16 00:52:26;;;;;;;12.52;3.58;;;21.10;99.90;;;;;;5048947;28;20468;-80
2023/08/16 00:54:53;;;;;;;6.03;3.75;;;21.20;99.90;;;;;;5050230;28;20501;-81
2023/08/16 00:57:19;;;;;;;6.38;3.42;;;21.20;99.90;;;;;;5050070;28;20048;-80
2023/08/16 00:59:45;;;;;;;6.60;3.53;;;21.30;99.90;;;;;;5050130;28;20033;-80
2023/08/16 01:02:14;;;;;;;6.38;3.25;;;21.40;99.90;;;;;;5049408;28;20044;-81
2023/08/16 01:04:41;;;;;;;7.47;3.80;;;21.50;99.90;;;;;;5049693;28;20021;-78
2023/08/16 01:07:07;;;;;;;8.68;3.42;;;21.50;99.90;;;;;;5049725;28;20017;-79
2023/08/16 01:09:33;;;;;;;9.95;4.20;;;21.60;99.90;;;;;;5046599;28;20025;-79
2023/08/16 01:12:34;;;;;;;4.80;3.17;;;21.70;99.90;;;;;;5041682;28;20059;-78
2023/08/16 01:14:59;;;;;;;6.00;3.58;;;21.70;99.90;;;;;;5049717;28;20037;-79
2023/08/16 01:17:26;;;;;;;11.07;3.42;;;21.80;99.90;;;;;;5049590;28;20045;-78
2023/08/16 01:19:55;;;;;;;10.27;4.07;;;21.90;99.90;;;;;;5049454;28;20021;-78
2023/08/16 01:22:44;;;;;;;4.90;3.47;;;21.90;99.90;;;;;;5040427;28;20064;-78
2023/08/16 01:25:45;;;;;;;8.77;3.97;;;21.90;99.90;;;;;;5029655;28;20107;-78
2023/08/16 01:28:12;;;;;;;7.28;3.75;;;21.90;99.90;;;;;;5029551;28;20021;-78
2023/08/16 01:30:42;;;;;;;6.97;3.60;;;21.90;99.90;;;;;;5029422;28;20087;-78
2023/08/16 01:33:12;;;;;;;11.15;4.65;;;21.90;99.90;;;;;;5028307;28;20030;-78
2023/08/16 01:35:38;;;;;;;5.18;3.30;;;21.90;99.90;;;;;;5028121;28;20030;-78
2023/08/16 01:38:06;;;;;;;5.15;3.55;;;21.90;99.90;;;;;;5031802;28;20623;-78
2023/08/16 01:40:41;;;;;;;6.80;3.17;;;21.90;99.90;;;;;;5028613;28;20146;-78
2023/08/16 01:43:10;;;;;;;10.20;3.47;;;21.80;99.90;;;;;;5028984;28;20037;-78
2023/08/16 01:45:35;;;;;;;9.80;3.88;;;21.70;99.90;;;;;;5044841;28;20221;-77
2023/08/16 01:48:03;;;;;;;8.93;3.42;;;21.70;99.90;;;;;;5029664;28;20442;-78
2023/08/16 01:50:29;;;;;;;8.32;3.70;;;21.70;99.90;;;;;;5029492;28;20021;-79
2023/08/16 01:52:55;;;;;;;8.15;3.67;;;21.70;99.90;;;;;;5029230;28;20067;-78
2023/08/16 01:55:21;;;;;;;8.43;3.85;;;21.70;99.90;;;;;;5045962;28;20029;-77
2023/08/16 01:57:46;;;;;;;17.15;4.32;;;21.70;99.90;;;;;;5037416;28;20036;-78
2023/08/16 02:00:12;;;;;;;12.98;3.38;;;21.60;99.90;;;;;;5029390;28;20502;-78
2023/08/16 02:02:38;;;;;;;19.58;3.80;;;21.70;99.90;;;;;;5049295;28;20021;-79
2023/08/16 02:05:04;;;;;;;4.68;3.25;;;21.70;99.90;;;;;;5048966;28;20413;-79
2023/08/16 02:07:30;;;;;;;11.85;4.05;;;21.70;99.90;;;;;;5047662;28;20029;-78
2023/08/16 02:09:56;;;;;;;9.20;3.97;;;21.70;99.90;;;;;;5047781;28;20025;-79
2023/08/16 02:12:21;;;;;;;8.40;3.60;;;21.70;99.90;;;;;;5049027;28;20509;-79
2023/08/16 02:14:47;;;;;;;8.93;3.95;;;21.70;99.90;;;;;;5039212;28;20486;-77
2023/08/16 02:17:13;;;;;;;7.20;3.90;;;21.70;99.90;;;;;;5043667;28;20528;-78
2023/08/16 02:19:38;;;;;;;10.35;3.75;;;21.70;99.90;;;;;;5048008;28;20166;-79
2023/08/16 02:22:04;;;;;;;8.15;3.92;;;21.70;99.90;;;;;;5048449;28;20045;-79
2023/08/16 02:24:29;;;;;;;6.22;3.58;;;21.60;99.90;;;;;;5052727;28;20082;-79
2023/08/16 02:26:55;;;;;;;11.18;3.10;;;21.60;99.90;;;;;;5052032;28;20040;-78
2023/08/16 02:29:21;;;;;;;7.38;4.25;;;21.50;99.90;;;;;;5050614;28;20053;-78
2023/08/16 02:31:46;;;;;;;14.73;4.30;;;21.40;99.90;;;;;;5052981;28;20046;-78
2023/08/16 02:34:12;;;;;;;8.93;3.33;;;21.40;99.90;;;;;;5051621;28;20090;-78
2023/08/16 02:36:37;;;;;;;8.20;4.03;;;21.30;99.90;;;;;;5051033;28;20029;-78
2023/08/16 02:39:05;;;;;;;8.38;4.00;;;21.30;99.90;;;;;;5051000;28;20029;-77
2023/08/16 02:41:31;;;;;;;10.13;3.60;;;21.40;99.90;;;;;;5049929;28;20151;-78
2023/08/16 02:43:56;;;;;;;10.38;4.30;;;21.30;99.90;;;;;;5051088;28;20503;-77
2023/08/16 02:46:23;;;;;;;7.03;3.17;;;21.40;99.90;;;;;;5051090;28;20036;-78
2023/08/16 02:48:48;;;;;;;9.80;4.18;;;21.40;99.90;;;;;;5049738;28;20048;-78
2023/08/16 02:51:14;;;;;;;12.27;3.92;;;21.30;99.90;;;;;;5051622;28;20037;-79
2023/08/16 02:53:40;;;;;;;5.95;3.45;;;21.30;99.90;;;;;;5051233;28;20451;-78
2023/08/16 02:56:05;;;;;;;5.57;3.60;;;21.30;99.90;;;;;;5052080;28;20033;-79
2023/08/16 02:58:31;;;;;;;11.80;3.55;;;21.20;99.90;;;;;;5050867;28;20029;-79
2023/08/16 03:00:56;;;;;;;12.93;4.30;;;21.10;99.90;;;;;;5052581;28;20075;-78
2023/08/16 03:03:23;;;;;;;8.82;3.80;;;21.10;99.90;;;;;;5052072;28;20059;-78
2023/08/16 03:05:49;;;;;;;14.98;3.75;;;21.10;99.90;;;;;;5051705;28;20039;-79
2023/08/16 03:08:14;;;;;;;5.80;2.90;;;21.10;99.90;;;;;;5051742;28;20119;-79
2023/08/16 03:10:40;;;;;;;6.90;3.13;;;21.10;99.90;;;;;;5051866;28;20739;-80
2023/08/16 03:13:06;;;;;;;9.60;3.88;;;21.10;99.90;;;;;;5051719;28;20060;-79
2023/08/16 03:15:31;;;;;;;11.20;3.65;;;21.10;99.90;;;;;;5051814;28;20036;-80
2023/08/16 03:17:57;;;;;;;6.72;3.28;;;21.10;99.90;;;;;;5050449;28;20036;-79
2023/08/16 03:20:23;;;;;;;8.90;3.67;;;21.00;99.90;;;;;;5050546;28;20485;-78
2023/08/16 03:22:48;;;;;;;6.07;3.40;;;21.00;99.90;;;;;;5051749;28;20497;-79
2023/08/16 03:25:14;;;;;;;12.25;3.70;;;20.90;99.90;;;;;;5050367;28;20082;-78
2023/08/16 03:27:40;;;;;;;11.00;3.90;;;20.80;99.90;;;;;;5050119;28;20041;-79
2023/08/16 03:30:06;;;;;;;6.22;3.55;;;20.80;99.90;;;;;;5051586;28;20539;-79
2023/08/16 03:32:31;;;;;;;10.50;3.85;;;20.90;99.90;;;;;;5051574;28;20044;-79
2023/08/16 03:34:57;;;;;;;5.25;3.35;;;20.80;99.90;;;;;;5050771;28;20025;-79
2023/08/16 03:37:23;;;;;;;11.27;3.55;;;20.80;99.90;;;;;;5051331;28;20017;-79
2023/08/16 03:39:49;;;;;;;8.63;4.05;;;20.80;99.90;;;;;;5051091;28;20062;-79
2023/08/16 03:42:15;;;;;;;9.23;3.45;;;20.70;99.90;;;;;;5051515;28;20501;-80
2023/08/16 03:44:40;;;;;;;6.13;3.55;;;20.70;99.90;;;;;;5050232;28;20021;-79
2023/08/16 03:47:06;;;;;;;7.82;3.45;;;20.70;99.90;;;;;;5051210;28;20032;-79
2023/08/16 03:49:32;;;;;;;7.72;3.60;;;20.60;99.90;;;;;;5051103;28;20100;-79
2023/08/16 03:51:57;;;;;;;11.32;3.70;;;20.60;99.90;;;;;;5049713;28;20025;-79
2023/08/16 03:54:23;;;;;;;4.32;3.13;;;20.60;99.90;;;;;;5051222;28;20029;-78
2023/08/16 03:56:49;;;;;;;6.78;3.55;;;20.50;99.90;;;;;;5051102;28;20021;-78
2023/08/16 03:59:14;;;;;;;6.15;3.03;;;20.60;99.90;;;;;;5049806;28;20033;-78
2023/08/16 04:01:40;;;;;;;7.03;3.00;;;20.60;99.90;;;;;;5050881;28;20091;-80
2023/08/16 04:04:06;;;;;;;10.13;3.13;;;20.60;99.90;;;;;;5050880;28;20032;-79
2023/08/16 04:06:31;;;;;;;4.55;3.33;;;20.60;99.90;;;;;;5051012;28;20064;-79
2023/08/16 04:08:57;;;;;;;6.03;3.60;;;20.60;99.90;;;;;;5051032;28;20032;-79
2023/08/16 04:11:22;;;;;;;7.20;3.47;;;20.60;99.90;;;;;;5049266;28;20032;-79
2023/08/16 04:13:48;;;;;;;14.13;2.80;;;20.60;99.90;;;;;;5050351;28;20060;-79
2023/08/16 04:16:14;;;;;;;7.43;3.70;;;20.70;99.90;;;;;;5050480;28;20115;-79
2023/08/16 04:18:39;;;;;;;7.82;3.40;;;20.70;99.90;;;;;;5049339;28;20028;-78
2023/08/16 04:21:05;;;;;;;6.93;3.00;;;20.70;99.90;;;;;;5049104;28;20041;-79
2023/08/16 04:23:31;;;;;;;6.03;3.50;;;20.80;99.90;;;;;;5050484;28;20508;-79
2023/08/16 04:25:56;;;;;;;6.25;3.03;;;20.80;99.90;;;;;;5050433;28;20063;-79
2023/08/16 04:28:22;;;;;;;7.45;3.60;;;20.80;99.90;;;;;;5050366;28;20398;-79
2023/08/16 04:30:47;;;;;;;4.97;3.10;;;20.90;99.90;;;;;;5048681;28;20505;-79
2023/08/16 04:33:13;;;;;;;8.32;3.35;;;21.00;99.90;;;;;;5048616;28;20021;-78
2023/08/16 04:35:39;;;;;;;5.03;2.88;;;21.00;99.90;;;;;;5048790;28;20036;-79
2023/08/16 04:38:04;;;;;;;8.20;2.97;;;21.10;99.90;;;;;;5050233;28;20052;-79
2023/08/16 04:40:30;;;;;;;6.43;3.28;;;21.20;99.90;;;;;;5049992;28;20086;-79
2023/08/16 04:42:56;;;;;;;6.03;2.70;;;21.30;99.90;;;;;;5050209;28;20075;-78
2023/08/16 04:45:21;;;;;;;9.68;2.85;;;21.40;99.90;;;;;;5049390;28;20029;-79
2023/08/16 04:47:47;;;;;;;8.93;3.63;;;21.60;99.90;;;;;;5048697;28;20036;-79
2023/08/16 04:50:12;;;;;;;4.38;2.75;;;21.70;99.90;;;;;;5049096;28;20033;-78
2023/08/16 04:52:38;;;;;;;4.22;2.75;;;21.90;99.90;;;;;;5050271;28;20025;-78
2023/08/16 04:55:08;;;;;;;10.02;3.30;;;22.10;99.90;;;;;;5048898;28;20436;-78
2023/08/16 04:57:34;;;;;;;8.20;3.50;;;22.20;99.90;;;;;;5050046;28;20019;-78
2023/08/16 05:00:00;;;;;;;7.43;2.53;;;22.40;99.90;;;;;;5048585;28;20037;-78
2023/08/16 05:02:26;;;;;;;4.80;2.72;;;22.60;99.90;;;;;;5049946;28;20022;-78
2023/08/16 05:04:51;;;;;;;5.93;2.58;;;22.80;99.90;;;;;;5049871;28;20021;-79
2023/08/16 05:07:17;;;;;;;7.80;2.47;;;23.00;99.90;;;;;;5049739;28;20087;-78
2023/08/16 05:09:43;;;;;;;9.48;2.92;;;23.20;99.90;;;;;;5049682;28;20029;-78
2023/08/16 05:12:08;;;;;;;6.78;3.15;;;23.40;99.90;;;;;;5049384;28;20056;-79
2023/08/16 05:14:34;;;;;;;10.77;3.83;;;23.50;99.90;;;;;;5049665;28;20033;-79
2023/08/16 05:17:00;;;;;;;5.80;3.28;;;23.70;99.90;;;;;;5049533;28;20478;-78
2023/08/16 05:19:25;;;;;;;7.78;3.05;;;23.80;99.90;;;;;;5047967;28;20106;-78
2023/08/16 05:21:51;;;;;;;11.18;3.22;;;23.90;99.90;;;;;;5049138;28;20041;-78
2023/08/16 05:24:17;;;;;;;12.48;3.20;;;24.20;99.90;;;;;;5049492;28;20524;-79
2023/08/16 05:26:42;;;;;;;8.23;3.22;;;24.40;99.90;;;;;;5049085;28;20493;-79
2023/08/16 05:29:08;;;;;;;7.03;3.17;;;24.70;99.90;;;;;;5048007;28;20028;-78
2023/08/16 05:31:33;;;;;;;17.70;3.30;;;24.90;99.90;;;;;;5049604;28;20079;-80
2023/08/16 05:33:59;;;;;;;14.60;3.35;;;25.10;99.90;;;;;;5047959;28;20489;-78
2023/08/16 05:36:28;;;;;;;12.90;3.35;;;25.30;99.90;;;;;;5049271;28;20512;-80
2023/08/16 05:38:54;;;;;;;8.93;3.13;;;25.50;99.50;;;;;;5049303;28;20025;-80
2023/08/16 05:41:19;;;;;;;7.35;3.60;;;25.80;98.00;;;;;;5047858;28;20036;-79
2023/08/16 05:43:45;;;;;;;6.60;3.35;;;26.00;97.50;;;;;;5047927;28;20779;-80
2023/08/16 05:46:11;;;;;;;5.05;2.95;;;26.30;95.60;;;;;;5048131;28;20490;-78
2023/08/16 05:48:36;;;;;;;15.45;2.50;;;26.50;94.80;;;;;;5049241;28;20120;-78
2023/08/16 05:51:02;;;;;;;5.85;2.97;;;27.00;94.50;;;;;;5049199;28;20113;-79
2023/08/16 05:53:27;;;;;;;4.80;2.80;;;27.50;92.80;;;;;;5048010;28;20501;-79
2023/08/16 05:55:53;;;;;;;8.85;2.88;;;27.80;91.60;;;;;;5049093;28;20061;-79
2023/08/16 05:58:19;;;;;;;6.85;2.95;;;28.10;90.00;;;;;;5051069;28;20537;-78
2023/08/16 06:00:46;;;;;;;11.75;3.67;;;28.10;86.00;;;;;;5053189;28;20532;-79
2023/08/16 06:03:13;;;;;;;14.55;3.00;;;28.20;83.90;;;;;;5053055;28;20080;-79
2023/08/16 06:05:39;;;;;;;8.75;2.95;;;28.40;83.60;;;;;;5053025;28;20055;-79
2023/08/16 06:08:05;;;;;;;8.48;2.80;;;28.60;80.20;;;;;;5053081;28;20409;-79
2023/08/16 06:10:31;;;;;;;10.82;2.90;;;28.90;78.80;;;;;;5052742;28;20107;-80
2023/08/16 06:12:56;;;;;;;4.95;3.08;;;29.20;76.80;;;;;;5051124;28;20056;-78
2023/08/16 06:15:22;;;;;;;8.45;2.65;;;29.30;73.60;;;;;;5052605;28;20504;-78
2023/08/16 06:17:48;;;;;;;9.63;2.90;;;29.40;74.20;;;;;;5051162;28;20025;-79
2023/08/16 06:20:14;;;;;;;8.15;3.28;;;29.50;71.90;;;;;;5052914;28;20037;-79
2023/08/16 06:22:39;;;;;;;7.07;2.80;;;29.60;70.00;;;;;;5052730;28;20501;-79
2023/08/16 06:25:06;;;;;;;9.57;2.90;;;29.90;68.80;;;;;;5051260;28;20052;-80
2023/08/16 06:27:33;;;;;;;6.60;3.08;;;30.20;67.40;;;;;;5051471;28;20025;-79
2023/08/16 06:29:59;;;;;;;7.88;2.60;;;30.10;66.10;;;;;;5052614;28;20029;-79
2023/08/16 06:32:24;;;;;;;10.63;2.53;;;30.40;65.50;;;;;;5050904;28;20520;-79
2023/08/16 06:34:50;;;;;;;7.93;2.42;;;30.50;63.60;;;;;;5052478;28;20032;-79
2023/08/16 06:37:16;;;;;;;6.82;3.35;;;30.40;63.20;;;;;;5051380;28;20036;-79
2023/08/16 06:39:42;;;;;;;8.13;2.53;;;30.30;61.90;;;;;;5052419;28;20374;-80
2023/08/16 06:42:09;;;;;;;9.57;2.53;;;30.10;61.60;;;;;;5052433;28;20065;-79
2023/08/16 06:44:35;;;;;;;10.63;2.47;;;30.00;63.20;;;;;;5052341;28;20025;-80
2023/08/16 06:47:01;;;;;;;3.47;2.45;;;29.70;62.50;;;;;;5050752;28;20453;-80
2023/08/16 06:49:27;;;;;;;8.65;2.53;;;29.30;63.60;;;;;;5051091;28;20033;-79
2023/08/16 06:51:52;;;;;;;7.60;2.88;;;29.20;64.30;;;;;;5052192;28;20025;-80
2023/08/16 06:54:18;;;;;;;9.77;2.40;;;29.10;64.10;;;;;;5052174;28;20024;-78
2023/08/16 06:56:43;;;;;;;12.25;3.80;;;29.20;63.70;;;;;;5051992;28;20103;-79
2023/08/16 06:59:10;;;;;;;8.48;3.15;;;29.40;63.50;;;;;;5051866;28;20112;-79
2023/08/16 07:01:36;;;;;;;8.95;3.03;;;29.60;63.20;;;;;;5052015;28;20556;-79
2023/08/16 07:04:02;;;;;;;9.10;2.80;;;30.10;61.40;;;;;;5050509;28;20108;-80
2023/08/16 07:06:31;;;;;;;18.02;2.83;;;30.20;61.50;;;;;;5051930;28;20501;-79
2023/08/16 07:08:58;;;;;;;3.63;2.30;;;30.10;61.50;;;;;;5050862;28;20490;-79
2023/08/16 07:11:24;;;;;;;8.63;3.28;;;29.50;62.30;;;;;;5050398;28;20029;-80
2023/08/16 07:13:50;;;;;;;4.53;2.58;;;28.90;64.20;;;;;;5051542;28;20095;-79
2023/08/16 07:16:17;;;;;;;5.07;3.10;;;28.60;66.00;;;;;;5051720;28;20497;-79
2023/08/16 07:18:42;;;;;;;4.00;2.33;;;28.80;64.60;;;;;;5050224;28;20029;-78
2023/08/16 07:21:08;;;;;;;10.68;2.83;;;28.80;64.30;;;;;;5051451;28;20067;-80
2023/08/16 07:23:34;;;;;;;14.00;2.95;;;29.20;63.50;;;;;;5051815;28;20025;-79
2023/08/16 07:25:59;;;;;;;7.20;2.42;;;29.80;61.70;;;;;;5050336;28;20036;-79
2023/08/16 07:28:25;;;;;;;3.70;2.25;;;30.60;61.10;;;;;;5051383;28;20023;-79
2023/08/16 07:30:55;;;;;;;8.27;2.53;;;31.20;59.70;;;;;;5050131;28;20033;-79
2023/08/16 07:33:21;;;;;;;5.10;2.60;;;32.00;57.40;;;;;;5051333;28;20409;-80
2023/08/16 07:35:48;;;;;;;12.13;3.08;;;32.40;55.10;;;;;;5050030;28;20029;-79
2023/08/16 07:38:14;;;;;;;11.27;3.05;;;32.50;54.90;;;;;;5051412;28;20083;-79
2023/08/16 07:40:39;;;;;;;6.95;2.30;;;32.80;53.20;;;;;;5051655;28;20478;-79
2023/08/16 07:43:06;;;;;;;11.80;3.15;;;32.60;53.00;;;;;;5051130;28;20025;-79
2023/08/16 07:45:32;;;;;;;4.15;2.60;;;31.80;54.00;;;;;;5051101;28;20116;-79
2023/08/16 07:47:57;;;;;;;5.88;2.63;;;31.20;55.30;;;;;;5051142;28;20095;-79
2023/08/16 07:50:23;;;;;;;6.10;2.78;;;31.00;57.40;;;;;;5050760;28;20465;-79
2023/08/16 07:52:49;;;;;;;3.90;2.58;;;30.80;57.70;;;;;;5051219;28;20505;-79
2023/08/16 07:55:15;;;;;;;4.85;2.58;;;30.80;58.20;;;;;;5050767;28;20417;-80
2023/08/16 07:57:41;;;;;;;10.05;2.65;;;30.70;58.90;;;;;;5050809;28;20043;-79
2023/08/16 08:00:11;;;;;;;4.53;2.63;;;30.70;59.30;;;;;;5049506;28;20409;-80
2023/08/16 08:02:38;;;;;;;9.68;2.88;;;30.80;59.80;;;;;;5049744;28;20028;-80
2023/08/16 08:05:05;;;;;;;4.57;2.63;;;30.80;58.80;;;;;;5051045;28;20043;-79
2023/08/16 08:07:30;;;;;;;4.88;2.60;;;31.20;58.70;;;;;;5049507;28;20436;-80
2023/08/16 08:09:57;;;;;;;7.03;2.90;;;32.30;56.60;;;;;;5050345;28;20083;-79
2023/08/16 08:12:23;;;;;;;7.72;3.13;;;33.00;54.50;;;;;;5050390;28;20568;-78
2023/08/16 08:14:49;;;;;;;14.18;3.17;;;33.30;53.10;;;;;;5049321;28;20036;-80
2023/08/16 08:17:15;;;;;;;5.07;2.17;;;33.80;52.30;;;;;;5050527;28;20033;-79
2023/08/16 08:19:41;;;;;;;8.93;5.80;;;33.80;49.80;;;;;;5050186;28;20060;-79
2023/08/16 08:22:07;;;;;;;8.00;4.63;;;33.30;49.00;;;;;;5050308;28;20036;-80
2023/08/16 08:24:33;;;;;;;9.18;2.63;;;33.20;49.90;;;;;;5049949;28;20021;-79
2023/08/16 08:26:59;;;;;;;4.93;2.38;;;32.80;50.30;;;;;;5050424;28;20037;-79
2023/08/16 08:29:25;;;;;;;4.15;2.67;;;32.60;50.60;;;;;;5050120;28;20025;-79
2023/08/16 08:31:53;;;;;;;5.82;3.00;;;32.70;50.70;;;;;;5050463;28;20473;-79
2023/08/16 08:34:19;;;;;;;6.38;2.90;;;33.20;50.10;;;;;;5050144;28;20025;-79
2023/08/16 08:36:44;;;;;;;6.53;2.50;;;33.70;49.10;;;;;;5048994;28;20037;-78
2023/08/16 08:39:10;;;;;;;7.80;2.15;;;33.70;47.20;;;;;;5050177;28;20051;-79
2023/08/16 08:41:40;;;;;;;7.15;2.50;;;33.70;46.70;;;;;;5050021;28;20417;-79
2023/08/16 08:44:06;;;;;;;7.97;2.65;;;33.60;46.50;;;;;;5050071;28;20477;-78
2023/08/16 08:46:32;;;;;;;9.10;2.60;;;33.60;47.80;;;;;;5048645;28;20033;-78
2023/08/16 08:49:02;;;;;;;6.50;2.35;;;33.90;47.40;;;;;;5050002;28;20561;-79
2023/08/16 08:51:30;;;;;;;8.82;2.25;;;34.10;46.60;;;;;;5050037;28;20087;-79
2023/08/16 08:53:57;;;;;;;8.55;2.42;;;34.20;46.40;;;;;;5048545;28;20107;-79
2023/08/16 08:56:24;;;;;;;6.60;2.50;;;34.30;46.00;;;;;;5048625;28;20493;-79
2023/08/16 08:58:51;;;;;;;4.63;2.60;;;34.30;45.60;;;;;;5049913;28;20021;-80
2023/08/16 09:01:20;;;;;;;7.00;4.85;;;34.30;44.80;;;;;;5049900;28;20047;-79
2023/08/16 09:03:48;;;;;;;14.73;6.97;;;34.10;44.50;;;;;;5049725;28;20029;-79
2023/08/16 09:06:14;;;;;;;4.90;2.80;;;33.60;46.10;;;;;;5048529;28;20108;-79
2023/08/16 09:08:43;;;;;;;7.25;1.95;;;33.30;47.70;;;;;;5049626;28;20445;-79
2023/08/16 09:11:10;;;;;;;4.63;2.03;;;33.40;48.30;;;;;;5049563;28;20104;-78
2023/08/16 09:13:36;;;;;;;8.15;2.22;;;33.40;47.20;;;;;;5049350;28;20056;-78
2023/08/16 09:16:02;;;;;;;3.50;1.90;;;33.50;47.10;;;;;;5048252;28;20029;-79
2023/08/16 09:18:28;;;;;;;5.47;2.58;;;33.70;47.10;;;;;;5048117;28;20029;-78
2023/08/16 09:20:54;;;;;;;9.50;2.03;;;33.90;45.40;;;;;;5049391;28;20500;-78
2023/08/16 09:23:21;;;;;;;12.07;2.78;;;33.80;44.90;;;;;;5048033;28;20027;-79
2023/08/16 09:25:47;;;;;;;12.98;4.63;;;33.90;45.80;;;;;;5049273;28;20510;-79
2023/08/16 09:28:14;;;;;;;8.15;2.90;;;34.30;45.10;;;;;;5048197;28;20029;-80
2023/08/16 09:30:43;;;;;;;10.93;2.45;;;34.60;45.60;;;;;;5048073;28;20059;-79
2023/08/16 09:33:13;;;;;;;7.22;3.22;;;35.20;43.50;;;;;;5047419;28;20032;-79
2023/08/16 09:35:45;;;;;;;6.65;2.72;;;35.50;43.30;;;;;;5049258;28;20513;-80
2023/08/16 09:38:13;;;;;;;4.97;2.20;;;35.60;43.70;;;;;;5049386;28;20497;-79
2023/08/16 09:40:47;;;;;;;5.18;2.78;;;36.00;43.60;;;;;;5049196;28;20075;-78
2023/08/16 09:43:13;;;;;;;7.53;3.53;;;36.40;41.00;;;;;;5049302;28;20040;-79
2023/08/16 09:45:40;;;;;;;7.65;3.00;;;36.00;41.10;;;;;;5049073;28;20029;-80
2023/08/16 09:48:08;;;;;;;12.38;5.15;;;35.90;41.40;;;;;;5049292;28;20509;-79
2023/08/16 09:50:35;;;;;;;15.43;5.28;;;35.80;41.30;;;;;;5047780;28;20025;-79
2023/08/16 09:53:04;;;;;;;43.97;23.38;;;35.60;42.20;;;;;;5049008;28;20112;-79
2023/08/16 09:55:32;;;;;;;47.25;23.77;;;35.70;42.00;;;;;;5049067;28;20044;-78
2023/08/16 09:57:59;;;;;;;54.67;29.33;;;35.50;41.40;;;;;;5049449;28;20047;-79
2023/08/16 10:00:27;;;;;;;10.32;4.28;;;35.50;42.70;;;;;;5047787;28;20036;-79
2023/08/16 10:02:53;;;;;;;12.70;4.07;;;35.70;42.20;;;;;;5049053;28;20131;-79
2023/08/16 10:05:19;;;;;;;9.15;3.40;;;35.80;41.60;;;;;;5047829;28;20056;-79
2023/08/16 10:07:48;;;;;;;11.60;3.47;;;35.60;41.10;;;;;;5047520;28;20072;-80
2023/08/16 10:10:15;;;;;;;8.27;2.67;;;35.50;42.20;;;;;;5047705;28;20065;-79
2023/08/16 10:12:41;;;;;;;13.75;3.15;;;35.40;42.00;;;;;;5048713;28;20049;-79
2023/08/16 10:15:08;;;;;;;10.27;2.90;;;35.70;41.50;;;;;;5047512;28;20116;-79
2023/08/16 10:17:38;;;;;;;13.55;3.00;;;35.50;42.20;;;;;;5047160;28;20028;-78
2023/08/16 10:20:04;;;;;;;9.90;3.13;;;34.80;43.40;;;;;;5048957;28;20133;-78
2023/08/16 10:22:37;;;;;;;15.80;3.13;;;34.00;44.20;;;;;;5048838;28;20112;-79
2023/08/16 10:25:16;;;;;;;10.00;3.17;;;33.40;45.80;;;;;;5049052;28;20064;-78
2023/08/16 10:27:45;;;;;;;14.27;2.95;;;33.20;45.80;;;;;;5048772;28;20120;-78
2023/08/16 10:30:23;;;;;;;10.18;3.00;;;33.20;47.10;;;;;;5047372;28;20063;-79
2023/08/16 10:32:58;;;;;;;22.98;2.78;;;33.30;46.30;;;;;;5047507;28;20029;-79
2023/08/16 10:35:24;;;;;;;;;;;33.30;46.00;;;;;;5047918;28;20053;-79
2023/08/16 10:37:53;;;;;;;;;;;33.40;46.10;;;;;;5048188;28;19947;-78
2023/08/16 10:40:20;;;;;;;8.52;2.55;;;33.30;46.80;;;;;;5047394;28;19920;-77
2023/08/16 10:42:59;;;;;;;7.55;2.80;;;33.20;45.60;;;;;;5049143;28;20029;-79
2023/08/16 10:45:29;;;;;;;10.80;2.97;;;32.70;46.60;;;;;;5052301;28;20025;-79
2023/08/16 10:47:56;;;;;;;10.95;3.28;;;32.60;48.10;;;;;;5052197;28;20017;-78
2023/08/16 10:50:36;;;;;;;4.75;2.47;;;32.40;45.90;;;;;;5052354;28;20025;-78
2023/08/16 10:53:04;;;;;;;10.75;4.30;;;32.10;46.50;;;;;;5050847;28;20032;-78
2023/08/16 10:55:30;;;;;;;11.35;3.03;;;31.90;47.90;;;;;;5052038;28;20493;-78
2023/08/16 10:57:56;;;;;;;4.78;2.35;;;32.00;49.80;;;;;;5050821;28;20029;-79
2023/08/16 11:00:32;;;;;;;11.88;2.97;;;32.10;47.80;;;;;;5050744;28;20032;-78
2023/08/16 11:03:03;;;;;;;12.57;2.88;;;32.10;47.90;;;;;;5051708;28;20052;-79
2023/08/16 11:05:31;;;;;;;9.82;2.72;;;32.10;49.30;;;;;;5051905;28;20494;-79
2023/08/16 11:08:01;;;;;;;5.68;2.42;;;32.20;47.70;;;;;;5050658;28;20021;-79
2023/08/16 11:10:39;;;;;;;35.67;17.05;;;32.00;47.40;;;;;;5051775;28;20029;-79
2023/08/16 11:13:12;;;;;;;34.58;13.13;;;31.80;48.10;;;;;;5051635;28;20049;-78
2023/08/16 11:15:40;;;;;;;13.13;5.95;;;31.70;48.60;;;;;;5051877;28;20021;-79
2023/08/16 11:18:06;;;;;;;11.80;4.13;;;31.70;48.20;;;;;;5051783;28;20028;-80
2023/08/16 11:20:32;;;;;;;12.20;4.13;;;31.70;47.90;;;;;;5051489;28;20025;-80
2023/08/16 11:22:58;;;;;;;8.18;3.17;;;31.80;47.50;;;;;;5052060;28;20110;-80
2023/08/16 11:25:32;;;;;;;8.70;4.25;;;31.80;47.20;;;;;;5050358;28;20029;-80
2023/08/16 11:28:04;;;;;;;8.70;5.30;;;31.70;47.20;;;;;;5050247;28;20404;-79
2023/08/16 11:30:33;;;;;;;12.95;5.95;;;31.70;47.80;;;;;;5051433;28;20024;-79
2023/08/16 11:33:00;;;;;;;4.55;2.72;;;31.60;47.60;;;;;;5051266;28;20025;-78
2023/08/16 11:35:25;;;;;;;7.53;2.63;;;31.60;48.30;;;;;;5051289;28;20028;-78
2023/08/16 11:37:52;;;;;;;8.00;3.78;;;31.50;48.00;;;;;;5051446;28;20029;-80
2023/08/16 11:40:22;;;;;;;9.88;2.75;;;31.50;48.00;;;;;;5050146;28;20116;-79
2023/08/16 11:42:49;;;;;;;9.60;5.22;;;31.50;49.40;;;;;;5051200;28;20068;-80
2023/08/16 11:45:18;;;;;;;20.80;3.20;;;31.40;48.40;;;;;;5050962;28;20546;-79
2023/08/16 11:47:43;;;;;;;4.82;2.75;;;31.30;48.50;;;;;;5051450;28;20112;-80
2023/08/16 11:50:10;;;;;;;12.93;2.92;;;31.20;48.30;;;;;;5051197;28;20492;-80
2023/08/16 11:52:35;;;;;;;6.03;2.95;;;31.10;49.40;;;;;;5049705;28;20613;-79
2023/08/16 11:55:07;;;;;;;5.13;2.90;;;31.20;50.20;;;;;;5049145;28;20115;-79
2023/08/16 11:57:42;;;;;;;12.15;2.92;;;31.20;49.30;;;;;;5049745;28;20029;-79
2023/08/16 12:00:08;;;;;;;6.45;3.22;;;31.10;49.30;;;;;;5050576;28;20029;-79
2023/08/16 12:02:34;;;;;;;12.10;2.92;;;31.20;48.90;;;;;;5050791;28;20050;-79
2023/08/16 12:05:09;;;;;;;9.10;3.17;;;31.10;49.50;;;;;;5050829;28;20025;-79
2023/08/16 12:07:45;;;;;;;8.43;2.70;;;31.20;50.30;;;;;;5049555;28;20029;-79
2023/08/16 12:10:22;;;;;;;8.40;3.95;;;31.40;49.60;;;;;;5049536;28;20033;-79
2023/08/16 12:12:49;;;;;;;7.03;3.13;;;31.20;49.30;;;;;;5049516;28;20049;-79
2023/08/16 12:15:14;;;;;;;10.85;3.00;;;31.20;50.10;;;;;;5049575;28;20029;-79
2023/08/16 12:17:40;;;;;;;5.65;2.60;;;31.40;48.80;;;;;;5049373;28;20040;-80
2023/08/16 12:20:06;;;;;;;10.52;3.03;;;31.50;49.50;;;;;;5050343;28;20128;-81
2023/08/16 12:22:32;;;;;;;6.72;2.97;;;31.50;49.50;;;;;;5050396;28;20037;-79
2023/08/16 12:24:57;;;;;;;6.28;2.83;;;31.50;50.30;;;;;;5049056;28;20039;-79
2023/08/16 12:27:23;;;;;;;10.90;2.88;;;31.50;48.90;;;;;;5049097;28;20551;-79
2023/08/16 12:29:49;;;;;;;8.27;3.55;;;31.50;49.20;;;;;;5050275;28;20025;-80
2023/08/16 12:32:14;;;;;;;11.35;3.00;;;31.40;49.80;;;;;;5048970;28;20032;-79
2023/08/16 12:34:40;;;;;;;7.32;3.10;;;31.50;49.70;;;;;;5048733;28;20029;-80
2023/08/16 12:37:07;;;;;;;13.23;2.95;;;31.50;49.60;;;;;;5050167;28;20033;-78
2023/08/16 12:39:32;;;;;;;10.70;3.10;;;31.50;48.70;;;;;;5050332;28;20028;-78
2023/08/16 12:41:58;;;;;;;6.53;2.70;;;31.30;47.40;;;;;;5048663;28;20033;-79